Terminal Aerodrome Forecast
Issued by NWS Huntsville, AL

Current Version | Previous Version | Text Only | Print | Product List | Glossary On
Versions: 1 2 3 4 5 6 7 8 9 10 11 12 13 14 15 16 17 18 19 20 21 22 23 24 25 26 27 28 29 30 31
000
FTUS44 KHUN 270520
TAFMSL
TAF
KMSL 270520Z 2706/2806 00000KT P6SM BKN060
      TEMPO 2706/2710 SCT060
     FM271000 00000KT P6SM BKN050
     FM271400 32010KT P6SM BKN040
     FM280000 36005KT P6SM SCT050=

USA.gov is the U.S. government's official web portal to all federal, state and local government web resources and services.